createdAt,value
2018-09-08T00:00:09.384Z,0.00
2018-09-08T00:01:09.559Z,0.00
2018-09-08T00:02:09.762Z,0.00
2018-09-08T00:03:09.948Z,0.00
2018-09-08T00:04:10.132Z,0.00
2018-09-08T00:05:10.324Z,0.00
2018-09-08T00:06:10.501Z,0.00
2018-09-08T00:07:10.700Z,0.00
2018-09-08T00:08:10.877Z,0.00
2018-09-08T00:09:11.061Z,0.00
2018-09-08T00:10:11.243Z,0.00
2018-09-08T00:11:11.422Z,0.00
2018-09-08T00:12:11.613Z,0.00
2018-09-08T00:13:11.803Z,0.00
2018-09-08T00:14:11.980Z,0.00
2018-09-08T00:15:12.165Z,0.00
2018-09-08T00:16:12.365Z,0.00
2018-09-08T00:17:12.562Z,0.00
2018-09-08T00:18:13.649Z,0.00
2018-09-08T00:19:12.953Z,0.00
2018-09-08T00:20:13.173Z,0.00
2018-09-08T00:21:13.353Z,0.00
2018-09-08T00:22:13.548Z,0.00
2018-09-08T00:23:13.733Z,0.00
2018-09-08T00:24:13.933Z,0.00
2018-09-08T00:25:14.110Z,0.00
2018-09-08T00:26:14.314Z,0.00
2018-09-08T00:27:14.494Z,0.00
2018-09-08T00:28:14.694Z,0.00
2018-09-08T00:29:14.892Z,0.00
2018-09-08T00:30:15.073Z,0.00
2018-09-08T00:31:15.301Z,0.00
2018-09-08T00:32:15.497Z,0.00
2018-09-08T00:33:15.706Z,0.00
2018-09-08T00:34:15.899Z,0.00
2018-09-08T00:35:16.077Z,0.00
2018-09-08T00:36:16.270Z,0.00
2018-09-08T00:37:16.452Z,0.00
2018-09-08T00:38:16.642Z,0.00
2018-09-08T00:39:16.834Z,0.00
2018-09-08T00:40:17.046Z,0.00
2018-09-08T00:41:17.210Z,0.00
2018-09-08T00:42:17.395Z,0.00
2018-09-08T00:43:17.582Z,0.00
2018-09-08T00:44:17.771Z,0.00
2018-09-08T00:45:17.953Z,0.00
2018-09-08T00:46:18.148Z,0.00
2018-09-08T00:47:18.331Z,0.00
2018-09-08T00:48:18.516Z,0.00
2018-09-08T00:49:18.701Z,0.00
2018-09-08T00:50:18.894Z,0.00
2018-09-08T00:51:19.077Z,0.00
2018-09-08T00:52:19.274Z,0.00
2018-09-08T00:53:19.461Z,0.00
2018-09-08T00:54:19.650Z,0.00
2018-09-08T00:55:19.840Z,0.00
2018-09-08T00:56:20.025Z,0.00
2018-09-08T00:57:20.217Z,0.00
2018-09-08T00:58:20.409Z,0.00
2018-09-08T00:59:20.592Z,0.00
2018-09-08T01:00:20.782Z,0.00
2018-09-08T01:01:20.970Z,0.00
2018-09-08T01:02:21.154Z,0.00
2018-09-08T01:03:21.339Z,0.00
2018-09-08T01:04:21.527Z,0.00
2018-09-08T01:05:21.713Z,0.00
2018-09-08T01:06:21.897Z,0.00
2018-09-08T01:07:22.084Z,0.00
2018-09-08T01:08:22.277Z,0.00
2018-09-08T01:09:22.459Z,0.00
2018-09-08T01:10:22.648Z,0.00
2018-09-08T01:11:22.832Z,0.00
2018-09-08T01:12:23.032Z,0.00
2018-09-08T01:13:23.213Z,0.00
2018-09-08T01:14:23.403Z,0.00
2018-09-08T01:15:23.598Z,0.00
2018-09-08T01:16:23.785Z,0.00
2018-09-08T01:17:23.972Z,0.00
2018-09-08T01:18:24.163Z,0.00
2018-09-08T01:19:24.346Z,0.00
2018-09-08T01:20:24.533Z,0.00
2018-09-08T01:21:24.721Z,0.00
2018-09-08T01:22:24.912Z,0.00
2018-09-08T01:23:25.103Z,0.00
2018-09-08T01:24:25.288Z,0.00
2018-09-08T01:25:25.484Z,0.00
2018-09-08T01:26:25.669Z,0.00
2018-09-08T01:27:25.861Z,0.00
2018-09-08T01:28:26.047Z,0.00
2018-09-08T01:29:26.239Z,0.00
2018-09-08T01:30:26.424Z,0.00
2018-09-08T01:31:26.613Z,0.00
2018-09-08T01:32:26.799Z,0.00
2018-09-08T01:33:26.988Z,0.00
2018-09-08T01:34:27.174Z,0.00
2018-09-08T01:35:27.367Z,0.00
2018-09-08T01:36:27.562Z,0.00
2018-09-08T01:37:27.752Z,0.00
2018-09-08T01:38:27.939Z,0.00
2018-09-08T01:39:28.121Z,0.00
2018-09-08T01:40:28.310Z,0.00
2018-09-08T01:41:28.496Z,0.00
2018-09-08T01:42:28.680Z,0.00
2018-09-08T01:43:28.869Z,0.00
2018-09-08T01:44:29.055Z,0.00
2018-09-08T01:45:29.234Z,0.00
2018-09-08T01:46:29.416Z,0.00
2018-09-08T01:47:29.602Z,0.00
2018-09-08T01:48:29.792Z,0.00
2018-09-08T01:49:29.976Z,0.00
2018-09-08T01:50:30.162Z,0.00
2018-09-08T01:51:30.351Z,0.00
2018-09-08T01:52:30.545Z,0.00
2018-09-08T01:53:30.729Z,0.00
2018-09-08T01:54:30.929Z,0.00
2018-09-08T01:55:31.111Z,0.00
2018-09-08T01:56:31.297Z,0.00
2018-09-08T01:57:31.482Z,0.00
2018-09-08T01:58:31.670Z,0.00
2018-09-08T01:59:31.859Z,0.00
2018-09-08T02:00:32.042Z,0.00
2018-09-08T02:01:32.229Z,0.00
2018-09-08T02:02:32.414Z,0.00
2018-09-08T02:03:32.596Z,0.00
2018-09-08T02:04:32.795Z,0.00
2018-09-08T02:05:32.984Z,0.00
2018-09-08T02:06:33.165Z,0.00
2018-09-08T02:07:33.355Z,0.00
2018-09-08T02:08:33.542Z,0.00
2018-09-08T02:09:33.728Z,0.00
2018-09-08T02:10:33.919Z,0.00
2018-09-08T02:11:34.101Z,0.00
2018-09-08T02:12:34.284Z,0.00
2018-09-08T02:13:34.469Z,0.00
2018-09-08T02:14:34.657Z,0.00
2018-09-08T02:15:34.842Z,0.00
2018-09-08T02:16:35.030Z,0.00
2018-09-08T02:17:35.215Z,0.00
2018-09-08T02:18:35.403Z,0.00
2018-09-08T02:19:35.585Z,0.00
2018-09-08T02:20:35.774Z,0.00
2018-09-08T02:21:35.965Z,0.00
2018-09-08T02:22:36.148Z,0.00
2018-09-08T02:23:36.336Z,0.00
2018-09-08T02:24:36.520Z,0.00
2018-09-08T02:25:36.710Z,0.00
2018-09-08T02:26:36.892Z,0.00
2018-09-08T02:27:37.076Z,0.00
2018-09-08T02:28:37.272Z,0.00
2018-09-08T02:29:37.457Z,0.00
2018-09-08T02:30:37.637Z,0.00
2018-09-08T02:31:37.828Z,0.00
2018-09-08T02:32:38.008Z,0.00
2018-09-08T02:33:38.201Z,0.00
2018-09-08T02:34:38.383Z,0.00
2018-09-08T02:35:38.569Z,0.00
2018-09-08T02:36:38.800Z,0.00
2018-09-08T02:37:38.944Z,0.00
2018-09-08T02:38:39.127Z,0.00
2018-09-08T02:39:39.315Z,0.00
2018-09-08T02:40:39.498Z,0.00
2018-09-08T02:41:39.684Z,0.00
2018-09-08T02:42:39.867Z,0.00
2018-09-08T02:43:40.054Z,0.00
2018-09-08T02:44:40.240Z,0.00
2018-09-08T02:45:40.425Z,0.00
2018-09-08T02:46:40.605Z,0.00
2018-09-08T02:47:40.800Z,0.00
2018-09-08T02:48:40.982Z,0.00
2018-09-08T02:49:41.174Z,0.00
2018-09-08T02:50:41.358Z,0.00
2018-09-08T02:51:41.540Z,0.00
2018-09-08T02:52:41.722Z,0.00
2018-09-08T02:53:41.920Z,0.00
2018-09-08T02:54:42.105Z,0.00
2018-09-08T02:55:42.287Z,0.00
2018-09-08T02:56:42.475Z,0.00
2018-09-08T02:57:42.663Z,0.00
2018-09-08T02:58:42.862Z,0.00
2018-09-08T02:59:43.038Z,0.00
2018-09-08T03:00:43.225Z,0.00
2018-09-08T03:01:43.414Z,0.00
2018-09-08T03:02:43.598Z,0.00
2018-09-08T03:03:43.787Z,0.00
2018-09-08T03:04:43.978Z,0.00
2018-09-08T03:05:44.171Z,0.00
2018-09-08T03:06:44.355Z,0.00
2018-09-08T03:07:44.540Z,0.00
2018-09-08T03:08:44.724Z,0.00
2018-09-08T03:09:44.905Z,0.00
2018-09-08T03:10:45.092Z,0.00
2018-09-08T03:11:45.282Z,0.00
2018-09-08T03:12:45.462Z,0.00
2018-09-08T03:13:45.654Z,0.00
2018-09-08T03:14:45.839Z,0.00
2018-09-08T03:15:46.024Z,0.00
2018-09-08T03:16:46.210Z,0.00
2018-09-08T03:17:46.394Z,0.00
2018-09-08T03:18:46.583Z,0.00
2018-09-08T03:19:46.771Z,0.00
2018-09-08T03:20:46.957Z,0.00
2018-09-08T03:21:47.141Z,0.00
2018-09-08T03:22:47.326Z,0.00
2018-09-08T03:23:47.510Z,0.00
2018-09-08T03:24:47.700Z,0.00
2018-09-08T03:25:47.888Z,0.00
2018-09-08T03:26:48.076Z,0.00
2018-09-08T03:27:48.264Z,0.00
2018-09-08T03:28:48.445Z,0.00
2018-09-08T03:29:48.635Z,0.00
2018-09-08T03:30:48.819Z,0.00
2018-09-08T03:31:49.002Z,0.00
2018-09-08T03:32:49.194Z,0.00
2018-09-08T03:33:49.381Z,0.00
2018-09-08T03:34:49.568Z,0.00
2018-09-08T03:35:49.760Z,0.00
2018-09-08T03:36:49.940Z,0.00
2018-09-08T03:37:50.128Z,0.00
2018-09-08T03:38:50.309Z,0.00
2018-09-08T03:39:50.499Z,0.00
2018-09-08T03:40:50.681Z,0.00
2018-09-08T03:41:50.868Z,0.00
2018-09-08T03:42:51.056Z,0.00
2018-09-08T03:43:51.241Z,0.00
2018-09-08T03:44:51.423Z,0.00
2018-09-08T03:45:51.613Z,0.00
2018-09-08T03:46:51.795Z,0.00
2018-09-08T03:47:51.982Z,0.00
2018-09-08T03:48:52.164Z,0.00
2018-09-08T03:49:52.355Z,0.00
2018-09-08T03:50:52.540Z,0.00
2018-09-08T03:51:52.728Z,0.00
2018-09-08T03:52:52.924Z,0.00
2018-09-08T03:53:53.110Z,0.00
2018-09-08T03:54:53.293Z,0.00
2018-09-08T03:55:53.485Z,0.00
2018-09-08T03:56:53.669Z,0.00
2018-09-08T03:57:53.857Z,0.00
2018-09-08T03:58:54.111Z,0.00
2018-09-08T03:59:54.233Z,0.00
2018-09-08T04:00:54.418Z,0.00
2018-09-08T04:01:54.604Z,0.00
2018-09-08T04:02:54.800Z,0.00
2018-09-08T04:03:54.988Z,0.00
2018-09-08T04:04:55.179Z,0.00
2018-09-08T04:05:55.356Z,0.00
2018-09-08T04:06:55.564Z,0.00
2018-09-08T04:07:55.738Z,0.00
2018-09-08T04:08:55.932Z,0.00
2018-09-08T04:09:56.135Z,0.00
2018-09-08T04:10:56.323Z,0.00
2018-09-08T04:11:56.510Z,0.00
2018-09-08T04:12:56.694Z,0.00
2018-09-08T04:13:56.882Z,0.00
2018-09-08T04:14:57.071Z,4.00
2018-09-08T04:15:57.253Z,0.00
2018-09-08T04:16:57.443Z,4.00
2018-09-08T04:17:57.652Z,0.00
2018-09-08T04:18:57.816Z,4.00
2018-09-08T04:19:57.998Z,4.00
2018-09-08T04:20:58.184Z,4.00
2018-09-08T04:21:58.371Z,8.00
2018-09-08T04:22:58.554Z,8.00
2018-09-08T04:23:58.752Z,12.00
2018-09-08T04:24:58.928Z,16.00
2018-09-08T04:25:59.117Z,16.00
2018-09-08T04:26:59.303Z,20.00
2018-09-08T04:27:59.490Z,20.00
2018-09-08T04:28:59.669Z,24.00
2018-09-08T04:29:59.857Z,32.00
2018-09-08T04:31:00.047Z,36.00
2018-09-08T04:32:00.232Z,40.00
2018-09-08T04:33:00.416Z,48.00
2018-09-08T04:34:00.603Z,52.00
2018-09-08T04:35:00.788Z,60.00
2018-09-08T04:36:00.970Z,68.00
2018-09-08T04:37:01.156Z,72.00
2018-09-08T04:38:01.345Z,84.00
2018-09-08T04:39:01.532Z,100.00
2018-09-08T04:40:01.711Z,108.00
2018-09-08T04:41:01.948Z,120.00
2018-09-08T04:42:02.088Z,132.00
2018-09-08T04:43:02.277Z,152.00
2018-09-08T04:44:02.464Z,164.00
2018-09-08T04:45:02.650Z,168.00
2018-09-08T04:46:02.837Z,192.00
2018-09-08T04:47:03.019Z,208.00
2018-09-08T04:48:03.211Z,216.00
2018-09-08T04:49:03.451Z,236.00
2018-09-08T04:50:03.588Z,260.00
2018-09-08T04:51:03.768Z,296.00
2018-09-08T04:52:03.951Z,328.00
2018-09-08T04:53:04.142Z,348.00
2018-09-08T04:54:04.325Z,368.00
2018-09-08T04:55:04.511Z,416.00
2018-09-08T04:56:04.695Z,440.00
2018-09-08T04:57:04.881Z,492.00
2018-09-08T04:58:05.068Z,528.00
2018-09-08T04:59:05.259Z,544.00
2018-09-08T05:00:05.439Z,632.00
2018-09-08T05:01:05.622Z,652.00
2018-09-08T05:02:05.817Z,676.00
2018-09-08T05:03:05.995Z,744.00
2018-09-08T05:04:06.183Z,724.00
2018-09-08T05:05:06.365Z,776.00
2018-09-08T05:06:06.552Z,836.00
2018-09-08T05:07:06.738Z,852.00
2018-09-08T05:08:06.929Z,856.00
2018-09-08T05:09:07.138Z,944.00
2018-09-08T05:10:07.296Z,956.00
2018-09-08T05:11:07.487Z,1008.00
2018-09-08T05:12:07.675Z,1084.00
2018-09-08T05:13:07.859Z,1104.00
2018-09-08T05:14:08.045Z,1128.00
2018-09-08T05:15:08.234Z,1260.00
2018-09-08T05:16:08.423Z,1360.00
2018-09-08T05:17:08.610Z,1448.00
2018-09-08T05:18:08.790Z,1568.00
2018-09-08T05:19:08.977Z,1632.00
2018-09-08T05:20:09.159Z,1832.00
2018-09-08T05:21:09.346Z,1888.00
2018-09-08T05:22:09.530Z,1976.00
2018-09-08T05:23:09.732Z,1868.00
2018-09-08T05:24:09.908Z,1888.00
2018-09-08T05:25:10.087Z,1736.00
2018-09-08T05:26:10.274Z,1848.00
2018-09-08T05:27:10.458Z,1848.00
2018-09-08T05:28:10.645Z,1840.00
2018-09-08T05:29:10.843Z,1744.00
2018-09-08T05:30:11.016Z,2004.00
2018-09-08T05:31:11.204Z,1960.00
2018-09-08T05:32:11.390Z,1940.00
2018-09-08T05:33:11.578Z,1912.00
2018-09-08T05:34:11.764Z,1920.00
2018-09-08T05:35:11.947Z,2056.00
2018-09-08T05:36:12.129Z,2152.00
2018-09-08T05:37:12.317Z,2116.00
2018-09-08T05:38:12.503Z,2240.00
2018-09-08T05:39:12.703Z,2268.00
2018-09-08T05:40:12.885Z,2488.00
2018-09-08T05:41:13.067Z,2460.00
2018-09-08T05:42:13.256Z,2468.00
2018-09-08T05:43:13.445Z,2660.00
2018-09-08T05:44:13.629Z,2752.00
2018-09-08T05:45:13.815Z,2904.00
2018-09-08T05:46:13.999Z,2816.00
2018-09-08T05:47:14.181Z,2828.00
2018-09-08T05:48:14.372Z,2908.00
2018-09-08T05:49:14.557Z,2972.00
2018-09-08T05:50:14.744Z,3304.00
2018-09-08T05:51:14.936Z,3132.00
2018-09-08T05:52:15.121Z,2988.00
2018-09-08T05:53:15.309Z,2840.00
2018-09-08T05:54:15.492Z,2820.00
2018-09-08T05:55:15.681Z,2812.00
2018-09-08T05:56:15.866Z,2924.00
2018-09-08T05:57:16.056Z,2940.00
2018-09-08T05:58:16.250Z,3092.00
2018-09-08T05:59:16.419Z,3172.00
2018-09-08T06:00:16.616Z,3596.00
2018-09-08T06:01:16.807Z,3992.00
2018-09-08T06:02:17.006Z,3852.00
2018-09-08T06:03:17.193Z,3768.00
2018-09-08T06:04:17.378Z,3852.00
2018-09-08T06:05:17.568Z,4180.00
2018-09-08T06:06:17.767Z,4264.00
2018-09-08T06:07:17.948Z,4184.00
2018-09-08T06:08:18.136Z,4584.00
2018-09-08T06:09:18.322Z,4992.00
2018-09-08T06:10:18.544Z,5096.00
2018-09-08T06:11:18.697Z,5352.00
2018-09-08T06:12:18.891Z,5680.00
2018-09-08T06:13:19.082Z,5144.00
2018-09-08T06:14:19.268Z,5376.00
2018-09-08T06:15:19.452Z,5848.00
2018-09-08T06:16:19.636Z,5344.00
2018-09-08T06:17:19.842Z,5508.00
2018-09-08T06:18:20.050Z,6276.00
2018-09-08T06:19:20.200Z,6372.00
2018-09-08T06:20:20.385Z,5788.00
2018-09-08T06:21:20.570Z,6248.00
2018-09-08T06:22:20.760Z,6464.00
2018-09-08T06:23:20.949Z,7632.00
2018-09-08T06:24:21.164Z,9372.00
2018-09-08T06:25:21.433Z,6656.00
2018-09-08T06:26:21.508Z,6524.00
2018-09-08T06:27:21.690Z,6468.00
2018-09-08T06:28:21.923Z,7812.00
2018-09-08T06:29:22.070Z,8144.00
2018-09-08T06:30:22.256Z,8568.00
2018-09-08T06:31:22.441Z,9492.00
2018-09-08T06:32:22.624Z,11228.00
2018-09-08T06:33:22.828Z,12092.00
2018-09-08T06:34:23.012Z,15232.00
2018-09-08T06:35:23.294Z,17888.00
2018-09-08T06:36:23.379Z,17184.00
2018-09-08T06:37:23.567Z,18656.00
2018-09-08T06:38:23.756Z,22240.00
2018-09-08T06:39:23.941Z,22848.00
2018-09-08T06:40:24.129Z,32128.00
2018-09-08T06:41:24.318Z,23296.00
2018-09-08T06:42:24.512Z,36864.00
2018-09-08T06:43:24.704Z,45056.00
2018-09-08T06:44:24.884Z,40096.00
2018-09-08T06:45:25.076Z,52320.00
2018-09-08T06:46:25.276Z,41952.00
2018-09-08T06:47:25.461Z,34048.00
2018-09-08T06:48:25.654Z,45856.00
2018-09-08T06:49:25.841Z,45920.00
2018-09-08T06:50:26.037Z,45344.00
2018-09-08T06:51:26.220Z,73344.00
2018-09-08T06:52:26.411Z,58304.00
2018-09-08T06:53:26.607Z,67488.00
2018-09-08T06:54:26.796Z,69088.00
2018-09-08T06:55:26.985Z,55136.00
2018-09-08T06:56:27.180Z,54240.00
2018-09-08T06:57:27.366Z,69728.00
2018-09-08T06:58:27.560Z,46944.00
2018-09-08T06:59:27.748Z,53696.00
2018-09-08T07:00:27.946Z,68640.00
2018-09-08T07:01:28.152Z,64800.00
2018-09-08T07:02:28.341Z,42496.00
2018-09-08T07:03:28.589Z,74656.00
2018-09-08T07:04:28.734Z,75168.00
2018-09-08T07:05:28.954Z,62400.00
2018-09-08T07:06:29.142Z,74720.00
2018-09-08T07:07:29.353Z,79136.00
2018-09-08T07:08:29.541Z,74112.00
2018-09-08T07:09:29.742Z,81088.00
2018-09-08T07:10:29.918Z,81120.00
2018-09-08T07:11:30.114Z,81280.00
2018-09-08T07:12:30.311Z,79616.00
2018-09-08T07:13:30.506Z,77248.00
2018-09-08T07:14:30.701Z,76960.00
2018-09-08T07:15:30.905Z,76064.00
2018-09-08T07:16:31.103Z,68608.00
2018-09-08T07:17:31.298Z,71392.00
2018-09-08T07:18:31.498Z,77312.00
2018-09-08T07:19:31.688Z,78240.00
2018-09-08T07:20:31.883Z,84640.00
2018-09-08T07:21:32.085Z,88448.00
2018-09-08T07:22:32.281Z,91680.00
2018-09-08T07:23:32.486Z,93856.00
2018-09-08T07:24:32.676Z,93312.00
2018-09-08T07:25:32.878Z,90816.00
2018-09-08T07:26:33.072Z,89152.00
2018-09-08T07:27:33.268Z,87456.00
2018-09-08T07:28:33.468Z,87680.00
2018-09-08T07:29:33.704Z,89920.00
2018-09-08T07:30:33.914Z,93856.00
2018-09-08T07:31:33.990Z,95584.00
2018-09-08T07:32:34.185Z,96128.00
2018-09-08T07:33:34.397Z,95776.00
2018-09-08T07:34:34.591Z,94848.00
2018-09-08T07:35:34.787Z,93024.00
2018-09-08T07:36:34.984Z,88608.00
2018-09-08T07:37:35.182Z,83072.00
2018-09-08T07:38:35.384Z,87840.00
2018-09-08T07:39:35.580Z,89056.00
2018-09-08T07:40:35.778Z,91520.00
2018-09-08T07:41:35.978Z,91744.00
2018-09-08T07:42:36.176Z,92192.00
2018-09-08T07:43:36.369Z,92704.00
2018-09-08T07:44:36.570Z,92224.00
2018-09-08T07:45:36.766Z,91712.00
2018-09-08T07:46:36.963Z,91360.00
2018-09-08T07:47:37.160Z,91616.00
2018-09-08T07:48:37.369Z,92160.00
2018-09-08T07:49:37.568Z,94304.00
2018-09-08T07:50:37.769Z,94528.00
2018-09-08T07:51:37.980Z,95200.00
2018-09-08T07:52:38.175Z,96032.00
2018-09-08T07:53:38.487Z,97632.00
2018-09-08T07:54:38.580Z,98848.00
2018-09-08T07:55:38.775Z,99712.00
2018-09-08T07:56:38.996Z,100352.00
2018-09-08T07:57:39.203Z,99392.00
2018-09-08T07:58:39.400Z,99360.00
2018-09-08T07:59:39.609Z,97664.00
2018-09-08T08:00:39.808Z,95712.00
2018-09-08T08:01:40.017Z,94624.00
2018-09-08T08:02:40.218Z,95104.00
2018-09-08T08:03:40.420Z,95072.00
2018-09-08T08:04:40.617Z,96512.00
2018-09-08T08:05:40.828Z,96960.00
2018-09-08T08:06:41.081Z,98624.00
2018-09-08T08:07:41.218Z,99808.00
2018-09-08T08:08:41.420Z,100608.00
2018-09-08T08:09:41.621Z,101664.00
2018-09-08T08:10:41.822Z,103136.00
2018-09-08T08:11:42.017Z,104544.00
2018-09-08T08:12:42.219Z,104800.00
2018-09-08T08:13:42.420Z,104928.00
2018-09-08T08:14:42.633Z,104928.00
2018-09-08T08:15:42.831Z,104000.00
2018-09-08T08:16:43.035Z,103840.00
2018-09-08T08:17:43.239Z,103200.00
2018-09-08T08:18:43.447Z,101952.00
2018-09-08T08:19:43.668Z,100768.00
2018-09-08T08:20:43.866Z,100960.00
2018-09-08T08:21:44.062Z,100224.00
2018-09-08T08:22:44.263Z,99296.00
2018-09-08T08:23:44.456Z,99328.00
2018-09-08T08:24:44.665Z,98496.00
2018-09-08T08:25:44.865Z,99488.00
2018-09-08T08:26:45.071Z,99776.00
2018-09-08T08:27:45.269Z,100800.00
2018-09-08T08:28:45.477Z,100928.00
2018-09-08T08:29:45.684Z,101248.00
2018-09-08T08:30:45.885Z,101856.00
2018-09-08T08:31:46.083Z,101856.00
2018-09-08T08:32:46.275Z,101504.00
2018-09-08T08:33:46.480Z,101440.00
2018-09-08T08:34:46.705Z,101024.00
2018-09-08T08:35:46.908Z,101088.00
2018-09-08T08:36:47.107Z,100544.00
2018-09-08T08:37:47.313Z,99776.00
2018-09-08T08:38:47.519Z,100224.00
2018-09-08T08:39:47.717Z,100096.00
2018-09-08T08:40:47.921Z,98368.00
2018-09-08T08:41:48.125Z,97600.00
2018-09-08T08:42:48.324Z,96768.00
2018-09-08T08:43:48.524Z,96160.00
2018-09-08T08:44:48.726Z,95680.00
2018-09-08T08:45:48.928Z,96480.00
2018-09-08T08:46:49.131Z,97824.00
2018-09-08T08:47:49.329Z,97856.00
2018-09-08T08:48:49.536Z,98496.00
2018-09-08T08:49:49.790Z,97472.00
2018-09-08T08:50:49.953Z,96832.00
2018-09-08T08:51:50.157Z,98016.00
2018-09-08T08:52:50.372Z,98624.00
2018-09-08T08:53:50.559Z,100128.00
2018-09-08T08:54:50.760Z,100256.00
2018-09-08T08:55:51.011Z,100416.00
2018-09-08T08:56:51.172Z,99264.00
2018-09-08T08:57:51.374Z,97632.00
2018-09-08T08:58:51.578Z,96640.00
2018-09-08T08:59:51.780Z,94720.00
2018-09-08T09:00:51.991Z,94976.00
2018-09-08T09:01:52.185Z,94624.00
2018-09-08T09:02:52.408Z,95040.00
2018-09-08T09:03:52.602Z,94624.00
2018-09-08T09:04:52.821Z,95360.00
2018-09-08T09:05:53.030Z,94848.00
2018-09-08T09:06:53.419Z,93792.00
2018-09-08T09:07:53.647Z,92320.00
2018-09-08T09:08:53.623Z,90272.00
2018-09-08T09:09:53.822Z,89056.00
2018-09-08T09:10:54.028Z,88960.00
2018-09-08T09:11:54.636Z,89024.00
2018-09-08T09:12:54.496Z,90848.00
2018-09-08T09:13:54.622Z,92192.00
2018-09-08T09:14:54.832Z,94624.00
2018-09-08T09:15:55.021Z,91456.00
2018-09-08T09:16:55.315Z,87712.00
2018-09-08T09:17:55.371Z,82400.00
2018-09-08T09:18:55.999Z,80928.00
2018-09-08T09:19:55.779Z,79488.00
2018-09-08T09:20:55.981Z,75904.00
2018-09-08T09:21:56.185Z,75456.00
2018-09-08T09:22:56.378Z,72480.00
2018-09-08T09:23:56.643Z,71168.00
2018-09-08T09:24:56.833Z,73664.00
2018-09-08T09:25:56.996Z,75360.00
2018-09-08T09:26:57.200Z,85056.00
2018-09-08T09:27:57.397Z,84512.00
2018-09-08T09:28:57.596Z,82816.00
2018-09-08T09:29:57.816Z,84704.00
2018-09-08T09:30:58.013Z,88032.00
2018-09-08T09:31:58.221Z,89024.00
2018-09-08T09:32:58.435Z,90496.00
2018-09-08T09:33:58.643Z,94944.00
2018-09-08T09:34:58.848Z,95648.00
2018-09-08T09:35:59.071Z,97376.00
2018-09-08T09:36:59.282Z,95424.00
2018-09-08T09:37:59.482Z,89952.00
2018-09-08T09:38:59.692Z,86432.00
2018-09-08T09:39:59.884Z,83584.00
2018-09-08T09:41:00.097Z,82944.00
2018-09-08T09:42:00.312Z,77600.00
2018-09-08T09:43:00.520Z,70176.00
2018-09-08T09:44:00.722Z,67488.00
2018-09-08T09:45:00.926Z,67552.00
2018-09-08T09:46:01.131Z,65408.00
2018-09-08T09:47:01.336Z,66592.00
2018-09-08T09:48:01.552Z,72544.00
2018-09-08T09:49:01.735Z,68128.00
2018-09-08T09:50:01.939Z,82336.00
2018-09-08T09:51:02.152Z,80864.00
2018-09-08T09:52:02.352Z,88800.00
2018-09-08T09:53:02.590Z,90560.00
2018-09-08T09:54:02.771Z,88384.00
2018-09-08T09:55:02.996Z,78560.00
2018-09-08T09:56:03.194Z,73568.00
2018-09-08T09:57:03.394Z,78080.00
2018-09-08T09:58:03.599Z,76928.00
2018-09-08T09:59:03.815Z,83168.00
2018-09-08T10:00:04.008Z,82560.00
2018-09-08T10:01:04.226Z,82912.00
2018-09-08T10:02:04.418Z,82816.00
2018-09-08T10:03:04.619Z,76384.00
2018-09-08T10:04:04.821Z,77824.00
2018-09-08T10:05:05.025Z,69856.00
2018-09-08T10:06:05.229Z,72544.00
2018-09-08T10:07:05.426Z,67104.00
2018-09-08T10:08:05.638Z,67264.00
2018-09-08T10:09:05.843Z,65408.00
2018-09-08T10:10:06.046Z,76128.00
2018-09-08T10:11:06.246Z,81728.00
2018-09-08T10:12:06.485Z,76704.00
2018-09-08T10:13:06.664Z,83456.00
2018-09-08T10:14:06.867Z,83584.00
2018-09-08T10:15:07.060Z,78176.00
2018-09-08T10:16:07.281Z,66048.00
2018-09-08T10:17:07.481Z,63648.00
2018-09-08T10:18:07.680Z,53600.00
2018-09-08T10:19:07.899Z,58720.00
2018-09-08T10:20:08.099Z,56064.00
2018-09-08T10:21:08.300Z,58688.00
2018-09-08T10:22:08.498Z,60192.00
2018-09-08T10:23:08.790Z,61344.00
2018-09-08T10:24:08.915Z,61312.00
2018-09-08T10:25:09.116Z,66016.00
2018-09-08T10:26:09.341Z,65440.00
2018-09-08T10:27:09.525Z,63232.00
2018-09-08T10:28:09.727Z,82336.00
2018-09-08T10:29:09.928Z,80640.00
2018-09-08T10:30:10.125Z,81408.00
2018-09-08T10:31:10.332Z,68704.00
2018-09-08T10:32:10.836Z,51904.00
2018-09-08T10:33:10.731Z,53152.00
2018-09-08T10:34:10.929Z,43776.00
2018-09-08T10:35:11.142Z,35904.00
2018-09-08T10:36:11.346Z,61728.00
2018-09-08T10:37:11.549Z,59072.00
2018-09-08T10:38:11.752Z,76416.00
2018-09-08T10:39:11.957Z,82496.00
2018-09-08T10:40:12.170Z,69696.00
2018-09-08T10:41:12.369Z,58144.00
2018-09-08T10:42:12.565Z,64448.00
2018-09-08T10:43:12.781Z,66080.00
2018-09-08T10:44:12.982Z,68032.00
2018-09-08T10:45:13.189Z,68224.00
2018-09-08T10:46:13.385Z,70624.00
2018-09-08T10:47:13.585Z,68480.00
2018-09-08T10:48:13.796Z,66848.00
2018-09-08T10:49:14.015Z,65696.00
2018-09-08T10:50:14.219Z,62688.00
2018-09-08T10:51:14.419Z,55584.00
2018-09-08T10:52:14.620Z,54720.00
2018-09-08T10:53:14.822Z,58272.00
2018-09-08T10:54:15.024Z,55904.00
2018-09-08T10:55:15.213Z,54496.00
2018-09-08T10:56:15.420Z,57088.00
2018-09-08T10:57:15.621Z,61440.00
2018-09-08T10:58:15.822Z,54816.00
2018-09-08T10:59:16.020Z,54304.00
2018-09-08T11:00:16.255Z,46048.00
2018-09-08T11:01:16.443Z,51456.00
2018-09-08T11:02:16.928Z,61344.00
2018-09-08T11:03:16.840Z,64960.00
2018-09-08T11:04:17.035Z,72928.00
2018-09-08T11:05:17.239Z,73344.00
2018-09-08T11:06:17.450Z,66848.00
2018-09-08T11:07:17.635Z,69728.00
2018-09-08T11:08:17.839Z,67488.00
2018-09-08T11:09:18.038Z,63456.00
2018-09-08T11:10:18.237Z,61152.00
2018-09-08T11:11:18.435Z,60448.00
2018-09-08T11:12:18.636Z,66208.00
2018-09-08T11:13:18.840Z,65472.00
2018-09-08T11:14:19.040Z,58560.00
2018-09-08T11:15:19.242Z,56672.00
2018-09-08T11:16:19.448Z,46240.00
2018-09-08T11:17:19.645Z,45792.00
2018-09-08T11:18:19.837Z,39808.00
2018-09-08T11:19:20.047Z,36064.00
2018-09-08T11:20:20.251Z,37856.00
2018-09-08T11:21:20.465Z,40128.00
2018-09-08T11:22:20.659Z,38560.00
2018-09-08T11:23:20.861Z,30176.00
2018-09-08T11:24:21.059Z,35264.00
2018-09-08T11:25:21.261Z,37280.00
2018-09-08T11:26:21.457Z,35808.00
2018-09-08T11:27:21.656Z,32224.00
2018-09-08T11:28:21.855Z,38144.00
2018-09-08T11:29:22.048Z,33824.00
2018-09-08T11:30:22.250Z,35552.00
2018-09-08T11:31:22.453Z,36192.00
2018-09-08T11:32:22.640Z,33920.00
2018-09-08T11:33:22.878Z,27552.00
2018-09-08T11:34:23.079Z,27200.00
2018-09-08T11:35:23.259Z,32512.00
2018-09-08T11:36:23.458Z,31968.00
2018-09-08T11:37:23.658Z,29952.00
2018-09-08T11:38:23.928Z,26144.00
2018-09-08T11:39:24.067Z,23296.00
2018-09-08T11:40:24.263Z,21824.00
2018-09-08T11:41:24.461Z,21728.00
2018-09-08T11:42:24.654Z,22560.00
2018-09-08T11:43:24.855Z,21760.00
2018-09-08T11:44:25.052Z,26176.00
2018-09-08T11:45:25.259Z,32928.00
2018-09-08T11:46:25.458Z,29408.00
2018-09-08T11:47:25.653Z,23456.00
2018-09-08T11:48:25.844Z,24800.00
2018-09-08T11:49:26.056Z,25376.00
2018-09-08T11:50:26.237Z,25408.00
2018-09-08T11:51:26.434Z,24928.00
2018-09-08T11:52:26.637Z,24608.00
2018-09-08T11:53:26.832Z,23968.00
2018-09-08T11:54:27.030Z,23424.00
2018-09-08T11:55:27.267Z,23104.00
2018-09-08T11:56:27.426Z,21856.00
2018-09-08T11:57:27.619Z,20608.00
2018-09-08T11:58:27.815Z,20352.00
2018-09-08T11:59:28.051Z,19328.00
2018-09-08T12:00:28.199Z,18176.00
2018-09-08T12:01:28.397Z,17376.00
2018-09-08T12:02:28.591Z,17408.00
2018-09-08T12:03:28.797Z,16704.00
2018-09-08T12:04:28.998Z,16448.00
2018-09-08T12:05:29.202Z,16192.00
2018-09-08T12:06:29.401Z,15776.00
2018-09-08T12:07:29.581Z,15200.00
2018-09-08T12:08:29.778Z,14604.00
2018-09-08T12:09:29.983Z,14108.00
2018-09-08T12:10:30.174Z,13540.00
2018-09-08T12:11:30.368Z,13516.00
2018-09-08T12:12:30.562Z,13316.00
2018-09-08T12:13:30.755Z,13016.00
2018-09-08T12:14:30.950Z,12740.00
2018-09-08T12:15:31.176Z,11912.00
2018-09-08T12:16:31.342Z,12008.00
2018-09-08T12:17:31.527Z,12096.00
2018-09-08T12:18:31.730Z,11924.00
2018-09-08T12:19:31.925Z,11592.00
2018-09-08T12:20:32.129Z,11148.00
2018-09-08T12:21:32.329Z,11080.00
2018-09-08T12:22:32.522Z,11088.00